createdAt,value
2023-02-19T00:00:19.128Z,10.30
2023-02-19T00:01:28.005Z,10.30
2023-02-19T00:02:29.809Z,10.30
2023-02-19T00:03:31.700Z,10.30
2023-02-19T00:04:33.505Z,10.30
2023-02-19T00:05:35.730Z,10.30
2023-02-19T00:06:37.805Z,10.30
2023-02-19T00:07:39.702Z,10.30
2023-02-19T00:08:41.596Z,10.30
2023-02-19T00:09:43.428Z,10.30
2023-02-19T00:10:45.244Z,10.30
2023-02-19T00:11:48.129Z,10.30
2023-02-19T00:12:49.916Z,10.30
2023-02-19T00:13:53.705Z,10.30
2023-02-19T00:14:57.186Z,10.30
2023-02-19T00:15:59.154Z,10.30
2023-02-19T00:17:01.014Z,10.30
2023-02-19T00:18:03.085Z,10.30
2023-02-19T00:19:07.641Z,10.30
2023-02-19T00:20:09.813Z,10.30
2023-02-19T00:21:11.973Z,10.30
2023-02-19T00:22:13.928Z,10.30
2023-02-19T00:23:15.835Z,10.30
2023-02-19T00:24:17.764Z,10.30
2023-02-19T00:25:19.593Z,10.30
2023-02-19T00:26:21.526Z,10.30
2023-02-19T00:27:23.973Z,10.30
2023-02-19T00:28:26.040Z,10.30
2023-02-19T00:29:27.914Z,10.30
2023-02-19T00:30:29.722Z,10.30
2023-02-19T00:31:34.341Z,10.30
2023-02-19T00:32:36.288Z,10.30
2023-02-19T00:33:38.238Z,10.30
2023-02-19T00:34:40.000Z,10.30
2023-02-19T00:35:41.890Z,10.30
2023-02-19T00:36:44.262Z,10.30
2023-02-19T00:37:46.141Z,10.30
2023-02-19T00:38:49.067Z,10.30
2023-02-19T00:39:50.944Z,10.30
2023-02-19T00:40:52.791Z,10.30
2023-02-19T00:41:55.496Z,10.30
2023-02-19T00:42:57.455Z,10.30
2023-02-19T00:43:59.203Z,10.30
2023-02-19T00:45:01.051Z,10.30
2023-02-19T00:46:02.941Z,10.30
2023-02-19T00:47:05.175Z,10.20
2023-02-19T00:48:07.024Z,10.30
2023-02-19T00:49:13.203Z,10.30
2023-02-19T00:50:15.747Z,10.30
2023-02-19T00:51:17.539Z,10.30
2023-02-19T00:52:19.389Z,10.20
2023-02-19T00:53:21.210Z,10.30
2023-02-19T00:54:23.464Z,10.30
2023-02-19T00:55:25.265Z,10.20
2023-02-19T00:56:27.827Z,10.20
2023-02-19T00:57:29.899Z,10.30
2023-02-19T00:58:31.964Z,10.20
2023-02-19T00:59:33.702Z,10.20
2023-02-19T01:00:35.605Z,10.20
2023-02-19T01:01:37.841Z,10.20
2023-02-19T01:02:39.637Z,10.20
2023-02-19T01:03:41.868Z,10.20
2023-02-19T01:04:43.777Z,10.20
2023-02-19T01:05:45.644Z,10.20
2023-02-19T01:06:48.843Z,10.20
2023-02-19T01:07:50.635Z,10.20
2023-02-19T01:08:52.455Z,10.20
2023-02-19T01:09:54.420Z,10.20
2023-02-19T01:10:56.640Z,10.20
2023-02-19T01:11:58.400Z,10.20
2023-02-19T01:13:00.221Z,10.20
2023-02-19T01:14:03.661Z,10.20
2023-02-19T01:15:05.760Z,10.20
2023-02-19T01:16:27.970Z,10.20
2023-02-19T01:17:29.820Z,10.20
2023-02-19T01:18:32.203Z,10.20
2023-02-19T01:19:34.112Z,10.20
2023-02-19T01:20:40.768Z,10.20
2023-02-19T01:21:42.553Z,10.20
2023-02-19T01:22:45.475Z,10.20
2023-02-19T01:23:47.712Z,10.20
2023-02-19T01:24:49.548Z,10.20
2023-02-19T01:25:51.657Z,10.20
2023-02-19T01:26:53.587Z,10.20
2023-02-19T01:27:55.413Z,10.20
2023-02-19T01:28:58.804Z,10.20
2023-02-19T01:30:00.771Z,10.20
2023-02-19T01:31:08.127Z,10.20
2023-02-19T01:32:10.232Z,10.20
2023-02-19T01:33:12.176Z,10.20
2023-02-19T01:34:13.978Z,10.20
2023-02-19T01:35:16.450Z,10.20
2023-02-19T01:36:18.383Z,10.20
2023-02-19T01:37:20.199Z,10.20
2023-02-19T01:38:22.170Z,10.20
2023-02-19T01:39:24.059Z,10.20
2023-02-19T01:40:26.745Z,10.20
2023-02-19T01:41:28.573Z,10.20
2023-02-19T01:42:30.874Z,10.20
2023-02-19T01:43:34.741Z,10.20
2023-02-19T01:44:36.463Z,10.20
2023-02-19T01:45:42.574Z,10.20
2023-02-19T01:46:51.571Z,10.20
2023-02-19T01:48:25.699Z,10.20
2023-02-19T01:49:31.436Z,10.20
2023-02-19T01:50:37.212Z,10.10
2023-02-19T01:51:46.288Z,10.10
2023-02-19T01:52:48.382Z,10.10
2023-02-19T01:53:55.317Z,10.10
2023-02-19T01:54:57.937Z,10.10
2023-02-19T01:56:01.055Z,10.10
2023-02-19T01:57:07.651Z,10.10
2023-02-19T01:58:10.399Z,10.20
2023-02-19T01:59:14.162Z,10.20
2023-02-19T02:00:17.633Z,10.20
2023-02-19T02:01:19.784Z,10.20
2023-02-19T02:02:28.501Z,10.10
2023-02-19T02:03:31.786Z,10.20
2023-02-19T02:04:33.999Z,10.20
2023-02-19T02:06:23.312Z,10.10
2023-02-19T02:07:43.530Z,10.20
2023-02-19T02:09:04.256Z,10.10
2023-02-19T02:10:21.313Z,10.10
2023-02-19T02:11:23.393Z,10.10
2023-02-19T02:12:25.251Z,10.10
2023-02-19T02:13:27.479Z,10.10
2023-02-19T02:14:33.632Z,10.10
2023-02-19T02:15:45.706Z,10.10
2023-02-19T02:17:10.586Z,10.10
2023-02-19T02:18:24.622Z,10.10
2023-02-19T02:20:04.571Z,10.10
2023-02-19T02:21:41.304Z,10.10
2023-02-19T02:23:17.408Z,10.10
2023-02-19T02:24:46.156Z,10.10
2023-02-19T02:26:25.766Z,10.10
2023-02-19T02:27:40.268Z,10.10
2023-02-19T02:29:00.266Z,10.10
2023-02-19T02:30:07.840Z,10.10
2023-02-19T02:31:18.300Z,10.10
2023-02-19T02:32:25.314Z,10.10
2023-02-19T02:33:50.072Z,10.00
2023-02-19T02:35:03.961Z,10.00
2023-02-19T02:36:17.479Z,10.00
2023-02-19T02:37:19.635Z,10.10
2023-02-19T02:38:27.435Z,10.10
2023-02-19T02:39:32.541Z,10.10
2023-02-19T02:40:35.563Z,10.10
2023-02-19T02:41:49.142Z,10.10
2023-02-19T02:42:51.409Z,10.10
2023-02-19T02:43:53.314Z,10.00
2023-02-19T02:45:15.314Z,10.10
2023-02-19T02:46:28.035Z,10.10
2023-02-19T02:47:42.813Z,10.10
2023-02-19T02:48:53.895Z,10.10
2023-02-19T02:50:06.654Z,10.00
2023-02-19T02:51:29.064Z,10.10
2023-02-19T02:53:02.527Z,10.00
2023-02-19T02:54:39.584Z,10.00
2023-02-19T02:55:48.859Z,10.00
2023-02-19T02:56:52.240Z,10.00
2023-02-19T02:57:54.641Z,10.00
2023-02-19T02:59:00.495Z,10.00
2023-02-19T03:00:02.558Z,10.00
2023-02-19T03:01:30.253Z,10.00
2023-02-19T03:02:32.486Z,10.00
2023-02-19T03:03:37.206Z,10.00
2023-02-19T03:05:16.677Z,10.00
2023-02-19T03:06:22.402Z,10.00
2023-02-19T03:07:28.207Z,10.00
2023-02-19T03:08:36.768Z,10.00
2023-02-19T03:09:43.168Z,10.00
2023-02-19T03:10:51.357Z,10.00
2023-02-19T03:12:13.800Z,10.00
2023-02-19T03:13:50.157Z,10.00
2023-02-19T03:15:14.719Z,10.00
2023-02-19T03:16:49.452Z,10.00
2023-02-19T03:18:14.298Z,10.00
2023-02-19T03:19:20.759Z,9.90
2023-02-19T03:20:25.935Z,9.90
2023-02-19T03:21:29.048Z,9.90
2023-02-19T03:22:34.654Z,9.90
2023-02-19T03:23:56.828Z,9.90
2023-02-19T03:25:28.386Z,9.90
2023-02-19T03:26:33.061Z,9.90
2023-02-19T03:27:37.471Z,9.90
2023-02-19T03:29:01.196Z,9.90
2023-02-19T03:30:09.739Z,9.90
2023-02-19T03:31:16.242Z,9.90
2023-02-19T03:32:20.933Z,9.90
2023-02-19T03:33:28.637Z,9.90
2023-02-19T03:35:02.686Z,9.90
2023-02-19T03:36:08.206Z,9.90
2023-02-19T03:37:24.509Z,9.90
2023-02-19T03:38:36.973Z,9.90
2023-02-19T03:39:44.443Z,9.90
2023-02-19T03:40:58.419Z,9.80
2023-02-19T03:42:09.457Z,9.90
2023-02-19T03:43:21.172Z,9.80
2023-02-19T03:44:34.833Z,9.80
2023-02-19T03:45:56.858Z,9.90
2023-02-19T03:47:04.918Z,9.90
2023-02-19T03:48:28.405Z,9.90
2023-02-19T03:49:35.253Z,9.80
2023-02-19T03:50:48.226Z,9.80
2023-02-19T03:52:16.699Z,9.80
2023-02-19T03:53:33.758Z,9.80
2023-02-19T03:54:52.686Z,9.80
2023-02-19T03:56:14.061Z,9.90
2023-02-19T03:57:31.398Z,9.80
2023-02-19T03:58:44.684Z,9.80
2023-02-19T03:59:54.030Z,9.90
2023-02-19T04:01:06.106Z,9.80
2023-02-19T04:02:18.444Z,9.80
2023-02-19T04:03:46.434Z,9.80
2023-02-19T04:04:58.998Z,9.90
2023-02-19T04:06:05.576Z,9.80
2023-02-19T04:07:08.315Z,9.80
2023-02-19T04:08:16.991Z,9.80
2023-02-19T04:09:29.909Z,9.80
2023-02-19T04:10:39.707Z,9.80
2023-02-19T04:11:42.627Z,9.80
2023-02-19T04:12:51.601Z,9.80
2023-02-19T04:14:05.547Z,9.90
2023-02-19T04:15:13.513Z,9.80
2023-02-19T04:16:22.928Z,9.80
2023-02-19T04:17:29.633Z,9.80
2023-02-19T04:18:40.319Z,9.80
2023-02-19T04:19:42.696Z,9.80
2023-02-19T04:20:46.221Z,9.80
2023-02-19T04:21:50.684Z,9.80
2023-02-19T04:22:52.785Z,9.80
2023-02-19T04:23:56.248Z,9.80
2023-02-19T04:24:58.313Z,9.80
2023-02-19T04:26:01.200Z,9.80
2023-02-19T04:27:04.932Z,9.80
2023-02-19T04:28:08.439Z,9.80
2023-02-19T04:29:10.187Z,9.80
2023-02-19T04:30:13.541Z,9.80
2023-02-19T04:31:15.351Z,9.80
2023-02-19T04:32:17.209Z,9.80
2023-02-19T04:33:18.981Z,9.80
2023-02-19T04:34:20.831Z,9.80
2023-02-19T04:35:22.737Z,9.80
2023-02-19T04:36:24.579Z,9.80
2023-02-19T04:37:26.425Z,9.80
2023-02-19T04:38:28.354Z,9.80
2023-02-19T04:39:30.428Z,9.80
2023-02-19T04:40:32.253Z,9.80
2023-02-19T04:41:34.716Z,9.80
2023-02-19T04:42:36.590Z,9.80
2023-02-19T04:43:38.445Z,9.80
2023-02-19T04:44:40.370Z,9.80
2023-02-19T04:45:42.223Z,9.80
2023-02-19T04:46:44.004Z,9.80
2023-02-19T04:47:45.845Z,9.80
2023-02-19T04:48:47.722Z,9.80
2023-02-19T04:49:49.589Z,9.80
2023-02-19T04:50:51.380Z,9.80
2023-02-19T04:51:53.188Z,9.80
2023-02-19T04:52:55.007Z,9.80
2023-02-19T04:53:56.930Z,9.80
2023-02-19T04:54:58.751Z,9.80
2023-02-19T04:56:09.149Z,9.80
2023-02-19T04:57:10.959Z,9.80
2023-02-19T04:58:12.829Z,9.80
2023-02-19T04:59:14.826Z,9.80
2023-02-19T05:00:16.610Z,9.90
2023-02-19T05:01:18.503Z,9.80
2023-02-19T05:02:20.292Z,9.80
2023-02-19T05:03:22.105Z,9.80
2023-02-19T05:04:24.085Z,9.80
2023-02-19T05:05:25.919Z,9.80
2023-02-19T05:06:27.812Z,9.80
2023-02-19T05:07:29.727Z,9.80
2023-02-19T05:08:31.665Z,9.80
2023-02-19T05:09:33.548Z,9.80
2023-02-19T05:10:35.343Z,9.80
2023-02-19T05:11:37.531Z,9.80
2023-02-19T05:12:39.357Z,9.80
2023-02-19T05:13:41.482Z,9.80
2023-02-19T05:14:43.427Z,9.80
2023-02-19T05:15:58.424Z,9.80
2023-02-19T05:17:00.258Z,9.80
2023-02-19T05:18:02.163Z,9.80
2023-02-19T05:19:04.140Z,9.80
2023-02-19T05:20:06.493Z,9.80
2023-02-19T05:21:09.121Z,9.80
2023-02-19T05:22:11.410Z,9.80
2023-02-19T05:23:13.132Z,9.80
2023-02-19T05:24:14.893Z,9.70
2023-02-19T05:25:17.333Z,9.80
2023-02-19T05:26:21.749Z,9.80
2023-02-19T05:27:23.495Z,9.80
2023-02-19T05:28:28.732Z,9.80
2023-02-19T05:29:33.217Z,9.70
2023-02-19T05:30:35.830Z,9.80
2023-02-19T05:31:38.133Z,9.80
2023-02-19T05:32:40.157Z,9.80
2023-02-19T05:33:43.158Z,9.80
2023-02-19T05:34:45.032Z,9.80
2023-02-19T05:35:52.517Z,9.70
2023-02-19T05:36:54.432Z,9.80
2023-02-19T05:37:56.250Z,9.70
2023-02-19T05:38:58.307Z,9.70
2023-02-19T05:40:00.206Z,9.70
2023-02-19T05:41:19.762Z,9.70
2023-02-19T05:42:21.764Z,9.70
2023-02-19T05:43:23.607Z,9.70
2023-02-19T05:44:25.907Z,9.70
2023-02-19T05:45:27.688Z,9.70
2023-02-19T05:46:30.669Z,9.70
2023-02-19T05:47:32.500Z,9.70
2023-02-19T05:48:34.717Z,9.70
2023-02-19T05:49:36.589Z,9.70
2023-02-19T05:50:39.887Z,9.70
2023-02-19T05:51:50.829Z,9.70
2023-02-19T05:52:52.745Z,9.70
2023-02-19T05:53:57.012Z,9.70
2023-02-19T05:54:58.983Z,9.70
2023-02-19T05:56:00.870Z,9.70
2023-02-19T05:57:02.608Z,9.70
2023-02-19T05:58:04.612Z,9.70
2023-02-19T05:59:21.045Z,9.70
2023-02-19T06:00:23.144Z,9.70
2023-02-19T06:01:28.021Z,9.70
2023-02-19T06:02:29.804Z,9.70
2023-02-19T06:03:31.625Z,9.70
2023-02-19T06:04:33.514Z,9.70
2023-02-19T06:05:35.378Z,9.80
2023-02-19T06:06:37.652Z,9.70
2023-02-19T06:07:39.663Z,9.70
2023-02-19T06:08:41.402Z,9.70
2023-02-19T06:09:43.276Z,9.70
2023-02-19T06:10:45.162Z,9.70
2023-02-19T06:11:46.967Z,9.70
2023-02-19T06:12:52.129Z,9.70
2023-02-19T06:13:54.088Z,9.70
2023-02-19T06:14:55.873Z,9.70
2023-02-19T06:15:57.837Z,9.70
2023-02-19T06:16:59.707Z,9.70
2023-02-19T06:18:01.828Z,9.70
2023-02-19T06:19:04.718Z,9.70
2023-02-19T06:20:06.961Z,9.70
2023-02-19T06:21:11.865Z,9.70
2023-02-19T06:22:15.224Z,9.70
2023-02-19T06:23:17.085Z,9.70
2023-02-19T06:24:18.972Z,9.70
2023-02-19T06:25:20.939Z,9.70
2023-02-19T06:26:24.501Z,9.70
2023-02-19T06:27:26.432Z,9.70
2023-02-19T06:28:28.296Z,9.70
2023-02-19T06:29:32.553Z,9.70
2023-02-19T06:30:34.443Z,9.70
2023-02-19T06:31:36.823Z,9.70
2023-02-19T06:32:38.836Z,9.70
2023-02-19T06:33:41.526Z,9.70
2023-02-19T06:34:43.292Z,9.70
2023-02-19T06:35:45.121Z,9.70
2023-02-19T06:36:49.402Z,9.70
2023-02-19T06:37:51.314Z,9.70
2023-02-19T06:38:53.275Z,9.70
2023-02-19T06:39:55.260Z,9.70
2023-02-19T06:41:04.978Z,9.70
2023-02-19T06:42:06.752Z,9.70
2023-02-19T06:43:08.745Z,9.70
2023-02-19T06:44:10.559Z,9.70
2023-02-19T06:45:12.383Z,9.70
2023-02-19T06:46:14.322Z,9.70
2023-02-19T06:47:16.123Z,9.70
2023-02-19T06:48:17.907Z,9.70
2023-02-19T06:49:19.763Z,9.70
2023-02-19T06:50:21.489Z,9.70
2023-02-19T06:51:26.351Z,9.70
2023-02-19T06:52:28.151Z,9.70
2023-02-19T06:53:30.295Z,9.70
2023-02-19T06:54:33.421Z,9.70
2023-02-19T06:55:35.243Z,9.70
2023-02-19T06:56:41.731Z,9.70
2023-02-19T06:57:43.507Z,9.70
2023-02-19T06:58:45.364Z,9.60
2023-02-19T06:59:47.205Z,9.70
2023-02-19T07:00:49.064Z,9.70
2023-02-19T07:01:50.975Z,9.70
2023-02-19T07:02:56.530Z,9.70
2023-02-19T07:03:58.763Z,9.70
2023-02-19T07:05:00.735Z,9.70
2023-02-19T07:06:02.596Z,9.60
2023-02-19T07:07:04.885Z,9.70
2023-02-19T07:08:06.713Z,9.70
2023-02-19T07:09:09.681Z,9.70
2023-02-19T07:10:11.467Z,9.60
2023-02-19T07:11:13.408Z,9.60
2023-02-19T07:12:15.257Z,9.60
2023-02-19T07:13:17.080Z,9.60
2023-02-19T07:14:19.074Z,9.60
2023-02-19T07:15:21.028Z,9.60
2023-02-19T07:16:23.255Z,9.60
2023-02-19T07:17:25.086Z,9.60
2023-02-19T07:18:26.950Z,9.60
2023-02-19T07:19:28.882Z,9.60
2023-02-19T07:20:30.653Z,9.60
2023-02-19T07:21:37.636Z,9.60
2023-02-19T07:22:39.573Z,9.60
2023-02-19T07:23:42.432Z,9.60
2023-02-19T07:24:45.700Z,9.60
2023-02-19T07:25:49.275Z,9.60
2023-02-19T07:26:51.121Z,9.60
2023-02-19T07:27:52.986Z,9.60
2023-02-19T07:28:54.956Z,9.60
2023-02-19T07:29:56.741Z,9.60
2023-02-19T07:31:03.578Z,9.60
2023-02-19T07:32:05.457Z,9.60
2023-02-19T07:33:10.102Z,9.60
2023-02-19T07:34:12.456Z,9.60
2023-02-19T07:35:14.537Z,9.60
2023-02-19T07:36:18.176Z,9.60
2023-02-19T07:37:20.121Z,9.60
2023-02-19T07:38:24.041Z,9.60
2023-02-19T07:39:25.833Z,9.60
2023-02-19T07:40:27.709Z,9.60
2023-02-19T07:41:29.486Z,9.60
2023-02-19T07:42:33.204Z,9.60
2023-02-19T07:43:37.031Z,9.60
2023-02-19T07:44:38.899Z,9.70
2023-02-19T07:45:40.692Z,9.70
2023-02-19T07:46:43.625Z,9.70
2023-02-19T07:47:45.486Z,9.70
2023-02-19T07:48:47.362Z,9.70
2023-02-19T07:49:49.250Z,9.70
2023-02-19T07:51:00.904Z,9.70
2023-02-19T07:52:02.626Z,9.70
2023-02-19T07:53:04.704Z,9.70
2023-02-19T07:54:07.785Z,9.70
2023-02-19T07:55:09.584Z,9.70
2023-02-19T07:56:12.610Z,9.80
2023-02-19T07:57:14.550Z,9.70
2023-02-19T07:58:16.955Z,9.70
2023-02-19T07:59:21.581Z,9.70
2023-02-19T08:00:23.463Z,9.80
2023-02-19T08:01:45.233Z,9.80
2023-02-19T08:03:03.275Z,9.80
2023-02-19T08:04:05.261Z,9.80
2023-02-19T08:05:07.570Z,9.70
2023-02-19T08:06:11.379Z,9.80
2023-02-19T08:07:13.234Z,9.80
2023-02-19T08:08:16.271Z,9.80
2023-02-19T08:09:18.055Z,9.80
2023-02-19T08:10:38.947Z,9.80
2023-02-19T08:11:59.530Z,9.80
2023-02-19T08:13:19.727Z,9.80
2023-02-19T08:14:26.273Z,9.80
2023-02-19T08:15:28.219Z,9.80
2023-02-19T08:16:42.486Z,9.80
2023-02-19T08:17:44.717Z,9.80
2023-02-19T08:18:48.317Z,9.80
2023-02-19T08:19:50.204Z,9.80
2023-02-19T08:20:52.720Z,9.80
2023-02-19T08:21:54.834Z,9.80
2023-02-19T08:22:56.690Z,9.80
2023-02-19T08:23:58.510Z,9.80
2023-02-19T08:25:00.410Z,9.80
2023-02-19T08:26:02.720Z,9.80
2023-02-19T08:27:04.649Z,9.80
2023-02-19T08:28:07.547Z,9.80
2023-02-19T08:29:09.367Z,9.80
2023-02-19T08:30:11.795Z,9.80
2023-02-19T08:31:14.220Z,9.80
2023-02-19T08:32:17.317Z,9.90
2023-02-19T08:33:21.315Z,9.90
2023-02-19T08:34:23.272Z,9.90
2023-02-19T08:35:25.907Z,9.90
2023-02-19T08:36:27.826Z,9.90
2023-02-19T08:37:29.728Z,9.90
2023-02-19T08:38:34.100Z,9.90
2023-02-19T08:39:35.933Z,9.90
2023-02-19T08:40:38.925Z,9.90
2023-02-19T08:41:40.850Z,9.90
2023-02-19T08:42:42.936Z,9.90
2023-02-19T08:43:45.115Z,9.90
2023-02-19T08:44:46.919Z,9.90
2023-02-19T08:45:48.930Z,9.90
2023-02-19T08:46:50.858Z,9.90
2023-02-19T08:47:52.720Z,9.90
2023-02-19T08:48:54.624Z,9.90
2023-02-19T08:49:56.543Z,9.90
2023-02-19T08:51:04.162Z,10.00
2023-02-19T08:52:06.079Z,10.00
2023-02-19T08:53:08.089Z,10.00
2023-02-19T08:54:09.926Z,10.00
2023-02-19T08:55:11.768Z,10.00
2023-02-19T08:56:16.313Z,10.10
2023-02-19T08:57:19.159Z,10.10
2023-02-19T08:58:21.651Z,10.10
2023-02-19T08:59:23.833Z,10.10
2023-02-19T09:00:25.807Z,10.10
2023-02-19T09:01:27.594Z,10.10
2023-02-19T09:02:30.240Z,10.10
2023-02-19T09:03:32.219Z,10.10
2023-02-19T09:04:34.179Z,10.10
2023-02-19T09:05:36.099Z,10.10
2023-02-19T09:06:40.042Z,10.10
2023-02-19T09:07:42.190Z,10.10
2023-02-19T09:08:44.177Z,10.10
2023-02-19T09:09:46.125Z,10.10
2023-02-19T09:10:58.189Z,10.10
2023-02-19T09:12:00.284Z,10.10
2023-02-19T09:13:02.722Z,10.10
2023-02-19T09:14:07.475Z,10.10
2023-02-19T09:15:09.680Z,10.10
2023-02-19T09:16:12.152Z,10.10
2023-02-19T09:17:13.896Z,10.10
2023-02-19T09:18:15.849Z,10.10
2023-02-19T09:19:17.697Z,10.10
2023-02-19T09:20:19.824Z,10.10
2023-02-19T09:21:21.643Z,10.10
2023-02-19T09:22:23.471Z,10.10
2023-02-19T09:23:25.254Z,10.20
2023-02-19T09:24:27.258Z,10.20
2023-02-19T09:25:29.065Z,10.20
2023-02-19T09:26:30.923Z,10.20
2023-02-19T09:27:33.346Z,10.20
2023-02-19T09:28:35.503Z,10.20
2023-02-19T09:29:37.333Z,10.20
2023-02-19T09:30:39.163Z,10.20
2023-02-19T09:31:41.438Z,10.20
2023-02-19T09:32:43.314Z,10.20
2023-02-19T09:33:46.894Z,10.20
2023-02-19T09:34:49.860Z,10.20
2023-02-19T09:35:51.741Z,10.30
2023-02-19T09:36:54.035Z,10.20
2023-02-19T09:37:58.962Z,10.20
2023-02-19T09:39:02.142Z,10.20
2023-02-19T09:40:04.139Z,10.20
2023-02-19T09:41:32.088Z,10.20
2023-02-19T09:42:34.038Z,10.20
2023-02-19T09:43:36.785Z,10.20
2023-02-19T09:44:41.921Z,10.20
2023-02-19T09:45:43.893Z,10.30
2023-02-19T09:46:49.105Z,10.30
2023-02-19T09:47:55.281Z,10.30
2023-02-19T09:49:06.612Z,10.40
2023-02-19T09:50:10.260Z,10.40
2023-02-19T09:51:14.136Z,10.40
2023-02-19T09:52:28.412Z,10.50
2023-02-19T09:53:40.471Z,10.50
2023-02-19T09:54:43.168Z,10.60
2023-02-19T09:55:45.314Z,10.60
2023-02-19T09:56:47.586Z,10.60
2023-02-19T09:57:51.715Z,10.70
2023-02-19T09:58:56.698Z,10.70
2023-02-19T10:00:22.663Z,10.80
2023-02-19T10:01:33.008Z,10.80
2023-02-19T10:02:35.008Z,10.80
2023-02-19T10:03:43.386Z,10.70
2023-02-19T10:04:46.617Z,10.70
2023-02-19T10:05:48.594Z,10.70
2023-02-19T10:06:51.567Z,10.70
2023-02-19T10:07:54.497Z,10.80
2023-02-19T10:09:23.879Z,10.80
2023-02-19T10:10:32.631Z,10.80
2023-02-19T10:11:34.462Z,10.80
2023-02-19T10:12:36.613Z,10.70
2023-02-19T10:13:49.140Z,10.70
2023-02-19T10:14:54.694Z,10.70
2023-02-19T10:16:02.314Z,10.70
2023-02-19T10:17:06.002Z,10.70
2023-02-19T10:18:11.046Z,10.70
2023-02-19T10:19:14.163Z,10.60
2023-02-19T10:20:22.420Z,10.60
2023-02-19T10:21:27.257Z,10.60
2023-02-19T10:22:29.901Z,10.60
2023-02-19T10:23:32.016Z,10.60
2023-02-19T10:24:33.928Z,10.60
2023-02-19T10:25:39.930Z,10.60
2023-02-19T10:26:41.856Z,10.60
2023-02-19T10:27:44.565Z,10.60
2023-02-19T10:28:46.617Z,10.60
2023-02-19T10:29:51.401Z,10.60
2023-02-19T10:30:58.878Z,10.60
2023-02-19T10:32:17.179Z,10.60
2023-02-19T10:33:19.847Z,10.60
2023-02-19T10:34:23.238Z,10.50
2023-02-19T10:35:25.352Z,10.50
2023-02-19T10:36:39.855Z,10.50
2023-02-19T10:37:50.696Z,10.50
2023-02-19T10:38:53.324Z,10.50
2023-02-19T10:39:56.370Z,10.50
2023-02-19T10:41:06.208Z,10.60
2023-02-19T10:42:18.725Z,10.60
2023-02-19T10:43:31.418Z,10.60
2023-02-19T10:44:42.518Z,10.60
2023-02-19T10:45:53.077Z,10.60
2023-02-19T10:46:59.340Z,10.60
2023-02-19T10:48:01.480Z,10.60
2023-02-19T10:49:30.202Z,10.60
2023-02-19T10:50:39.267Z,10.60
2023-02-19T10:51:42.383Z,10.70
2023-02-19T10:52:44.199Z,10.70
2023-02-19T10:53:47.242Z,10.70
2023-02-19T10:55:16.402Z,10.70
2023-02-19T10:56:29.917Z,10.70
2023-02-19T10:57:34.603Z,10.70
2023-02-19T10:58:37.905Z,10.70
2023-02-19T10:59:50.081Z,10.70
2023-02-19T11:01:10.364Z,10.70
2023-02-19T11:02:20.969Z,10.70
2023-02-19T11:03:24.002Z,10.60
2023-02-19T11:04:34.384Z,10.60
2023-02-19T11:05:38.098Z,10.50
2023-02-19T11:06:40.587Z,10.50
2023-02-19T11:07:55.019Z,10.50
2023-02-19T11:09:01.028Z,10.50
2023-02-19T11:10:04.155Z,10.40
2023-02-19T11:11:06.644Z,10.40
2023-02-19T11:12:10.446Z,10.40
2023-02-19T11:13:20.857Z,10.40
2023-02-19T11:14:24.881Z,10.30
2023-02-19T11:15:35.241Z,10.30
2023-02-19T11:16:44.432Z,10.30
2023-02-19T11:17:54.164Z,10.20
2023-02-19T11:18:57.293Z,10.20
2023-02-19T11:20:07.159Z,10.20
2023-02-19T11:21:33.067Z,10.20
2023-02-19T11:22:42.279Z,10.20
2023-02-19T11:23:47.541Z,10.20
2023-02-19T11:24:54.525Z,10.20
2023-02-19T11:26:01.154Z,10.30
2023-02-19T11:27:17.243Z,10.30
2023-02-19T11:28:36.015Z,10.30
2023-02-19T11:29:38.154Z,10.40
2023-02-19T11:30:44.714Z,10.40
2023-02-19T11:31:46.757Z,10.50
2023-02-19T11:32:48.684Z,10.50
2023-02-19T11:34:15.625Z,10.50
2023-02-19T11:35:22.697Z,10.60
2023-02-19T11:36:30.988Z,10.60
2023-02-19T11:37:33.511Z,10.60
2023-02-19T11:38:35.432Z,10.70
2023-02-19T11:39:37.528Z,10.70
2023-02-19T11:41:08.481Z,10.70
2023-02-19T11:42:40.916Z,10.70
2023-02-19T11:44:04.071Z,10.80
2023-02-19T11:45:41.576Z,10.90
2023-02-19T11:46:54.721Z,10.90
2023-02-19T11:48:41.224Z,11.00
2023-02-19T11:49:55.833Z,10.90
2023-02-19T11:51:24.311Z,11.00
2023-02-19T11:52:34.983Z,10.90
2023-02-19T11:53:49.680Z,10.90
2023-02-19T11:55:09.690Z,10.90
2023-02-19T11:56:16.272Z,10.90
2023-02-19T11:57:38.479Z,10.80
2023-02-19T11:58:58.531Z,10.80
2023-02-19T12:00:24.124Z,10.70
2023-02-19T12:02:02.534Z,10.60
2023-02-19T12:03:25.451Z,10.50
2023-02-19T12:05:06.225Z,10.40
2023-02-19T12:06:19.880Z,10.30
2023-02-19T12:07:51.764Z,10.30
2023-02-19T12:09:20.629Z,10.20
2023-02-19T12:10:43.479Z,10.20
2023-02-19T12:11:55.503Z,10.10
2023-02-19T12:13:04.276Z,10.10
2023-02-19T12:14:16.678Z,10.10
2023-02-19T12:15:33.290Z,10.10
2023-02-19T12:17:14.897Z,10.10
2023-02-19T12:18:28.169Z,10.10
2023-02-19T12:19:43.965Z,10.10
2023-02-19T12:21:10.487Z,10.10
2023-02-19T12:22:20.215Z,10.10
2023-02-19T12:24:09.840Z,10.10
2023-02-19T12:25:29.365Z,10.10
2023-02-19T12:26:41.984Z,10.00
2023-02-19T12:28:07.348Z,10.00
2023-02-19T12:29:33.465Z,10.00
2023-02-19T12:31:00.710Z,10.00
2023-02-19T12:32:17.573Z,10.00
2023-02-19T12:33:56.866Z,10.00
2023-02-19T12:35:20.284Z,10.00
2023-02-19T12:36:46.598Z,10.00
2023-02-19T12:38:03.769Z,10.00
2023-02-19T12:39:32.653Z,9.90
2023-02-19T12:41:13.129Z,9.90
2023-02-19T12:42:35.941Z,9.90
2023-02-19T12:43:42.852Z,9.90
2023-02-19T12:44:58.883Z,9.90
2023-02-19T12:46:06.680Z,9.90
2023-02-19T12:47:18.070Z,9.90
2023-02-19T12:48:39.524Z,9.90
2023-02-19T12:49:47.154Z,9.90
2023-02-19T12:50:54.464Z,9.90
2023-02-19T12:52:01.951Z,9.90
2023-02-19T12:53:13.013Z,9.90
2023-02-19T12:54:23.960Z,9.90
2023-02-19T12:55:36.192Z,9.90
2023-02-19T12:56:50.145Z,10.00
2023-02-19T12:57:54.347Z,10.00
2023-02-19T12:59:10.195Z,10.00
2023-02-19T13:00:30.851Z,10.00
2023-02-19T13:02:17.675Z,10.00
2023-02-19T13:03:33.700Z,10.00
2023-02-19T13:04:51.344Z,10.00
2023-02-19T13:06:04.194Z,10.10
2023-02-19T13:07:15.632Z,10.00
2023-02-19T13:08:35.611Z,10.00
2023-02-19T13:10:10.892Z,10.00
2023-02-19T13:11:20.690Z,10.00
2023-02-19T13:12:34.310Z,9.90
2023-02-19T13:13:47.225Z,9.90
2023-02-19T13:15:05.993Z,9.90
2023-02-19T13:16:19.017Z,9.80
2023-02-19T13:17:51.189Z,9.80
2023-02-19T13:18:58.622Z,9.80
2023-02-19T13:20:28.103Z,9.80
2023-02-19T13:21:52.341Z,9.70
2023-02-19T13:23:34.436Z,9.80
2023-02-19T13:24:40.952Z,9.70
2023-02-19T13:26:02.548Z,9.70
2023-02-19T13:27:21.057Z,9.60
2023-02-19T13:29:00.395Z,9.60
2023-02-19T13:30:11.368Z,9.50
2023-02-19T13:31:17.289Z,9.50
2023-02-19T13:32:31.540Z,9.50
2023-02-19T13:33:52.777Z,9.40
2023-02-19T13:35:33.908Z,9.40
2023-02-19T13:36:36.867Z,9.30
2023-02-19T13:37:39.250Z,9.30
2023-02-19T13:38:44.853Z,9.30
2023-02-19T13:39:50.108Z,9.30
2023-02-19T13:40:58.027Z,9.20
2023-02-19T13:42:00.205Z,9.20
2023-02-19T13:43:08.656Z,9.20
2023-02-19T13:44:26.174Z,9.20
2023-02-19T13:45:41.453Z,9.20
2023-02-19T13:46:44.912Z,9.20
2023-02-19T13:47:57.328Z,9.20
2023-02-19T13:49:28.455Z,9.10
2023-02-19T13:50:34.937Z,9.10
2023-02-19T13:51:36.778Z,9.10
2023-02-19T13:52:40.572Z,9.00
2023-02-19T13:53:45.156Z,9.00
2023-02-19T13:54:47.198Z,9.00
2023-02-19T13:55:52.625Z,9.00
2023-02-19T13:57:24.821Z,9.00
2023-02-19T13:58:32.962Z,8.90
2023-02-19T13:59:37.357Z,8.90
2023-02-19T14:00:55.046Z,8.90
2023-02-19T14:01:56.823Z,8.90
2023-02-19T14:03:45.440Z,8.90
2023-02-19T14:05:09.720Z,8.80
2023-02-19T14:06:12.062Z,8.90
2023-02-19T14:07:20.277Z,8.80
2023-02-19T14:08:44.830Z,8.80
2023-02-19T14:09:47.489Z,8.80
2023-02-19T14:10:54.432Z,8.80
2023-02-19T14:12:04.968Z,8.80
2023-02-19T14:13:08.690Z,8.80
2023-02-19T14:14:34.668Z,8.80
2023-02-19T14:15:49.865Z,8.80
2023-02-19T14:17:19.685Z,8.80
2023-02-19T14:18:47.848Z,8.80
2023-02-19T14:19:55.457Z,8.80
2023-02-19T14:21:14.529Z,8.80
2023-02-19T14:22:47.217Z,8.80
2023-02-19T14:23:57.852Z,8.80
2023-02-19T14:25:00.969Z,8.80
2023-02-19T14:26:07.390Z,8.80
2023-02-19T14:27:09.294Z,8.90
2023-02-19T14:28:15.052Z,8.90
2023-02-19T14:29:17.494Z,8.80
2023-02-19T14:30:21.708Z,8.90
2023-02-19T14:31:36.285Z,8.90
2023-02-19T14:32:42.185Z,8.90
2023-02-19T14:33:49.187Z,8.90
2023-02-19T14:34:51.025Z,8.90
2023-02-19T14:36:23.305Z,8.90
2023-02-19T14:37:26.011Z,9.00
2023-02-19T14:38:33.171Z,9.00
2023-02-19T14:39:39.284Z,9.00
2023-02-19T14:40:42.504Z,9.10
2023-02-19T14:41:48.144Z,9.10
2023-02-19T14:42:55.094Z,9.00
2023-02-19T14:44:00.466Z,9.10
2023-02-19T14:45:06.409Z,9.10
2023-02-19T14:46:24.283Z,9.10
2023-02-19T14:47:30.906Z,9.10